createdAt,value
2022-09-23T05:07:09.007Z,80
2022-09-23T05:16:52.970Z,79
2022-09-23T05:18:06.429Z,79
2022-09-23T05:19:19.208Z,79
2022-09-23T05:20:32.177Z,79
2022-09-23T05:24:11.199Z,79
2022-09-23T05:25:24.532Z,79
2022-09-23T05:26:37.223Z,79
2022-09-23T05:30:17.017Z,79
2022-09-23T05:31:29.300Z,79
2022-09-23T05:32:42.114Z,79
2022-09-23T05:33:55.164Z,80
2022-09-23T05:35:08.161Z,80
2022-09-23T05:36:21.245Z,80
2022-09-23T05:37:34.214Z,79
2022-09-23T05:38:47.223Z,79
2022-09-23T05:40:00.233Z,79
2022-09-23T05:41:13.181Z,80
2022-09-23T05:42:26.203Z,80
2022-09-23T05:43:39.150Z,80
2022-09-23T05:44:52.304Z,80
2022-09-23T05:46:08.571Z,80
2022-09-23T05:47:18.150Z,80
2022-09-23T05:48:31.145Z,80
2022-09-23T05:49:58.402Z,81
2022-09-23T05:50:57.230Z,81
2022-09-23T05:52:10.044Z,81
2022-09-23T05:53:23.180Z,82
2022-09-23T05:54:36.479Z,81
2022-09-23T05:55:49.022Z,81
2022-09-23T05:58:15.149Z,81
2022-09-23T05:59:28.260Z,81
2022-09-23T06:00:41.164Z,81
2022-09-23T06:01:57.111Z,81
2022-09-23T06:03:07.270Z,81
2022-09-23T06:04:20.084Z,81
2022-09-23T06:05:33.114Z,81
2022-09-23T06:06:46.543Z,81
2022-09-23T06:09:11.605Z,81
2022-09-23T06:10:25.634Z,81
2022-09-23T06:11:38.604Z,81
2022-09-23T06:12:51.196Z,81
2022-09-23T06:14:04.211Z,81
2022-09-23T06:15:16.999Z,81
2022-09-23T14:24:22.888Z,51
2022-09-23T14:25:36.074Z,51
2022-09-23T14:26:48.916Z,51
2022-09-23T14:28:01.944Z,51
2022-09-23T14:29:14.910Z,51
2022-09-23T14:30:27.792Z,51
2022-09-23T14:31:40.929Z,51
2022-09-23T14:32:53.842Z,51
2022-09-23T14:34:06.949Z,52
2022-09-23T14:35:19.919Z,51
2022-09-23T14:36:32.891Z,51
2022-09-23T14:37:46.002Z,51
2022-09-23T14:38:58.996Z,51
2022-09-23T14:40:12.168Z,51
2022-09-23T14:41:25.095Z,51
2022-09-23T14:42:37.914Z,51
2022-09-23T14:43:50.919Z,50
2022-09-23T14:45:04.035Z,50
2022-09-23T14:46:16.866Z,50
2022-09-23T14:47:30.252Z,50
2022-09-23T14:48:42.920Z,50
2022-09-23T14:49:56.158Z,50
2022-09-23T14:51:16.158Z,49
2022-09-23T14:52:21.870Z,50
2022-09-23T14:53:35.079Z,49
2022-09-23T14:54:48.097Z,49
2022-09-23T14:56:00.873Z,49
2022-09-23T14:57:13.938Z,49
2022-09-23T14:58:27.000Z,49
2022-09-23T14:59:40.408Z,49
2022-09-23T15:00:52.961Z,49
2022-09-23T15:02:05.937Z,49
2022-09-23T15:03:19.010Z,49
2022-09-23T15:05:44.907Z,49
2022-09-23T15:09:23.962Z,49
2022-09-23T15:10:36.942Z,50
2022-09-23T15:13:03.514Z,50
2022-09-23T15:14:33.443Z,50
2022-09-23T15:15:28.923Z,50
2022-09-23T15:16:41.936Z,50
2022-09-23T15:17:54.886Z,50
2022-09-23T15:19:08.246Z,50
2022-09-23T15:20:20.707Z,50
2022-09-23T15:21:34.312Z,50
2022-09-23T15:22:46.946Z,50
2022-09-23T15:23:59.976Z,49
2022-09-23T15:25:12.776Z,49
2022-09-23T15:26:25.979Z,50
2022-09-23T15:27:38.891Z,49
2022-09-23T15:28:52.343Z,49
2022-09-23T15:30:05.548Z,50
2022-09-23T15:32:31.225Z,51
2022-09-23T15:33:43.907Z,51
2022-09-23T15:34:56.893Z,50
2022-09-23T15:36:09.906Z,50
2022-09-23T15:37:23.235Z,50
2022-09-23T15:38:35.787Z,50
2022-09-23T15:39:49.069Z,50
2022-09-23T15:41:01.994Z,51
2022-09-23T15:42:14.967Z,51
2022-09-23T15:43:27.895Z,51
2022-09-23T15:44:40.965Z,50
2022-09-23T15:45:53.953Z,50
2022-09-23T15:47:06.869Z,51
2022-09-23T15:48:20.188Z,51
2022-09-23T15:50:45.893Z,51
2022-09-23T15:51:58.896Z,51
2022-09-23T15:53:11.570Z,51
2022-09-23T15:54:25.043Z,51
2022-09-23T15:55:37.850Z,51
2022-09-23T15:56:51.037Z,51
2022-09-23T15:58:03.898Z,51
2022-09-23T15:59:16.802Z,51
2022-09-23T16:00:30.070Z,51
2022-09-23T16:01:43.011Z,51
2022-09-23T16:02:55.959Z,51
2022-09-23T16:04:08.905Z,52
2022-09-23T16:05:21.941Z,52
2022-09-23T16:06:34.955Z,52
2022-09-23T16:07:48.293Z,52
2022-09-23T16:09:01.369Z,52
2022-09-23T16:10:14.109Z,52
2022-09-23T16:11:27.021Z,52
2022-09-23T16:12:39.943Z,53
2022-09-23T16:13:52.980Z,54
2022-09-23T16:15:06.262Z,54
2022-09-23T16:16:18.966Z,54
2022-09-23T16:17:32.124Z,55
2022-09-23T16:18:44.941Z,55
2022-09-23T16:19:58.377Z,55
2022-09-23T16:21:10.934Z,56
2022-09-23T16:22:23.915Z,56
2022-09-23T16:23:37.051Z,57
2022-09-23T16:24:50.078Z,57
2022-09-23T16:26:02.913Z,57
2022-09-23T16:27:15.918Z,57
2022-09-23T16:28:29.001Z,57
2022-09-23T16:29:42.028Z,58
2022-09-23T16:30:55.438Z,58
2022-09-23T16:32:07.992Z,58
2022-09-23T16:33:20.915Z,58
2022-09-23T16:34:33.928Z,58
2022-09-23T16:35:47.205Z,58
2022-09-23T16:37:00.026Z,58
2022-09-23T16:38:12.898Z,58
2022-09-23T16:39:25.918Z,58
2022-09-23T16:40:41.358Z,58
2022-09-23T16:41:51.944Z,58
2022-09-23T16:43:04.939Z,58
2022-09-23T16:44:18.082Z,59
2022-09-23T16:45:31.204Z,59
2022-09-23T16:46:43.919Z,59
2022-09-23T16:47:57.093Z,60
2022-09-23T16:49:09.538Z,60
2022-09-23T16:50:23.087Z,60
2022-09-23T16:51:35.914Z,60
2022-09-23T16:52:48.895Z,61
2022-09-23T16:54:01.957Z,62
2022-09-23T16:55:14.910Z,62
2022-09-23T16:56:30.889Z,62
2022-09-23T16:57:41.005Z,61
2022-09-23T16:58:54.260Z,61
2022-09-23T17:00:06.901Z,61
2022-09-23T17:01:19.981Z,61
2022-09-23T17:02:32.926Z,61
2022-09-23T17:03:45.933Z,61
2022-09-23T17:04:58.896Z,61
2022-09-23T17:06:12.391Z,61
2022-09-23T17:07:25.071Z,61
2022-09-23T17:08:37.591Z,61
2022-09-23T17:09:50.916Z,61
2022-09-23T17:11:03.789Z,62
2022-09-23T17:12:16.894Z,62
2022-09-23T17:13:30.082Z,62
2022-09-23T17:14:42.762Z,63
2022-09-23T17:15:56.363Z,63
2022-09-23T17:17:08.894Z,63
2022-09-23T17:18:21.862Z,63
2022-09-23T17:19:34.903Z,64
2022-09-23T17:20:47.871Z,64
2022-09-23T17:22:00.928Z,64
2022-09-23T17:23:14.240Z,64
2022-09-23T17:24:26.903Z,64
2022-09-23T17:25:39.967Z,65
2022-09-23T17:26:53.905Z,65
2022-09-23T17:28:05.953Z,65
2022-09-23T17:29:19.240Z,65
2022-09-23T17:30:32.107Z,65
2022-09-23T17:31:44.998Z,65
2022-09-23T17:32:57.943Z,66
2022-09-23T17:34:10.944Z,66
2022-09-23T17:35:24.037Z,66
2022-09-23T17:36:36.928Z,66
2022-09-23T17:37:49.778Z,66
2022-09-23T17:39:03.331Z,66
2022-09-23T17:40:16.482Z,67
2022-09-23T17:41:29.066Z,67
2022-09-23T17:42:41.904Z,67
2022-09-23T17:43:54.886Z,66
2022-09-23T17:45:07.628Z,66
2022-09-23T17:46:20.973Z,66
2022-09-23T17:47:37.343Z,66
2022-09-23T17:48:47.025Z,66
2022-09-23T17:49:59.946Z,66
2022-09-23T17:51:12.898Z,65
2022-09-23T17:52:25.886Z,65
2022-09-23T17:53:38.909Z,65
2022-09-23T17:54:51.997Z,65
2022-09-23T17:56:04.799Z,65
2022-09-23T17:57:17.927Z,65
2022-09-23T17:58:31.004Z,65
2022-09-23T17:59:43.927Z,65
2022-09-23T18:00:56.977Z,66
2022-09-23T18:02:15.637Z,66
2022-09-23T18:03:22.848Z,66
2022-09-23T18:04:35.898Z,66
2022-09-23T18:05:48.928Z,67
2022-09-23T18:07:01.603Z,67
2022-09-23T18:08:15.026Z,68
2022-09-23T18:09:27.912Z,68
2022-09-23T18:10:40.929Z,68
2022-09-23T18:11:54.277Z,68
2022-09-23T18:13:06.886Z,68
2022-09-23T18:14:20.037Z,68
2022-09-23T18:15:33.076Z,68
2022-09-23T18:16:46.015Z,68
2022-09-23T18:17:58.902Z,68
2022-09-23T18:19:12.010Z,68
2022-09-23T18:20:25.067Z,68
2022-09-23T18:21:37.944Z,69
2022-09-23T18:22:51.050Z,69
2022-09-23T18:24:28.448Z,69
2022-09-23T18:25:37.937Z,69
2022-09-23T18:26:29.971Z,69
2022-09-23T18:27:42.885Z,70
2022-09-23T18:28:55.874Z,70
2022-09-23T18:30:08.773Z,70
2022-09-23T18:31:21.808Z,70
2022-09-23T18:32:34.772Z,70
2022-09-23T18:33:47.851Z,70
2022-09-23T18:35:01.022Z,70
2022-09-23T18:36:13.911Z,70
2022-09-23T18:37:26.876Z,70
2022-09-23T18:38:39.881Z,70
2022-09-23T18:39:52.760Z,70
2022-09-23T18:41:05.878Z,70
2022-09-23T18:42:18.892Z,70
2022-09-23T18:43:39.555Z,70
2022-09-23T18:44:44.951Z,70
2022-09-23T18:45:57.892Z,70
2022-09-23T18:47:11.033Z,70
2022-09-23T18:48:23.910Z,70
2022-09-23T18:49:37.194Z,70
2022-09-23T18:50:49.906Z,70
2022-09-23T18:52:02.899Z,70
2022-09-23T18:53:15.885Z,71
2022-09-23T18:54:28.763Z,71
